createdAt,value
2023-03-22T00:00:45.998Z,7.13
2023-03-22T00:03:32.141Z,7.19
2023-03-22T00:06:18.990Z,7.19
2023-03-22T00:09:05.400Z,7.25
2023-03-22T00:11:52.005Z,7.25
2023-03-22T00:14:38.759Z,7.25
2023-03-22T00:17:26.914Z,7.25
2023-03-22T00:20:13.736Z,7.25
2023-03-22T00:23:00.807Z,7.25
2023-03-22T00:25:48.178Z,7.31
2023-03-22T00:28:35.715Z,7.31
2023-03-22T00:31:22.332Z,7.31
2023-03-22T00:34:09.227Z,7.31
2023-03-22T00:36:55.684Z,7.31
2023-03-22T00:39:42.504Z,7.38
2023-03-22T00:42:28.930Z,7.38
2023-03-22T00:45:15.596Z,7.44
2023-03-22T00:48:02.074Z,7.44
2023-03-22T00:50:48.813Z,7.50
2023-03-22T00:53:41.102Z,7.44
2023-03-22T00:56:29.250Z,7.44
2023-03-22T00:59:23.766Z,7.38
2023-03-22T01:02:14.084Z,7.38
2023-03-22T01:05:00.280Z,7.38
2023-03-22T01:07:50.034Z,7.38
2023-03-22T01:10:38.618Z,7.25
2023-03-22T01:13:25.243Z,7.19
2023-03-22T01:16:11.570Z,7.19
2023-03-22T01:18:58.571Z,7.31
2023-03-22T01:21:45.408Z,7.38
2023-03-22T01:24:32.428Z,7.44
2023-03-22T01:27:18.699Z,7.50
2023-03-22T01:30:06.636Z,7.50
2023-03-22T01:32:53.291Z,7.56
2023-03-22T01:35:39.748Z,7.63
2023-03-22T01:38:27.061Z,7.63
2023-03-22T01:41:17.148Z,7.63
2023-03-22T01:44:12.093Z,7.63
2023-03-22T01:46:58.662Z,7.63
2023-03-22T01:49:45.529Z,7.63
2023-03-22T01:52:31.767Z,7.69
2023-03-22T01:55:25.452Z,7.69
2023-03-22T01:58:37.459Z,7.75
2023-03-22T02:01:25.251Z,7.75
2023-03-22T02:04:22.862Z,7.81
2023-03-22T02:07:15.306Z,7.81
2023-03-22T02:10:03.525Z,7.88
2023-03-22T02:13:50.179Z,7.88
2023-03-22T02:17:59.157Z,7.94
2023-03-22T02:21:26.708Z,8.00
2023-03-22T02:25:05.837Z,8.06
2023-03-22T02:28:28.957Z,8.06
2023-03-22T02:31:49.162Z,8.06
2023-03-22T02:35:16.143Z,8.13
2023-03-22T02:38:26.578Z,8.06
2023-03-22T02:42:06.990Z,8.06
2023-03-22T02:45:04.726Z,8.06
2023-03-22T02:48:28.008Z,8.06
2023-03-22T02:51:23.927Z,8.06
2023-03-22T02:54:23.485Z,8.06
2023-03-22T02:57:20.193Z,8.00
2023-03-22T03:00:10.818Z,8.00
2023-03-22T03:03:10.539Z,7.94
2023-03-22T03:06:05.420Z,7.94
2023-03-22T03:08:57.363Z,7.88
2023-03-22T03:11:53.397Z,7.75
2023-03-22T03:14:40.330Z,7.75
2023-03-22T03:18:08.119Z,7.75
2023-03-22T03:21:50.568Z,7.75
2023-03-22T03:24:47.863Z,7.69
2023-03-22T03:27:49.192Z,7.69
2023-03-22T03:30:51.341Z,7.63
2023-03-22T03:33:47.767Z,7.56
2023-03-22T03:36:40.307Z,7.56
2023-03-22T03:39:32.716Z,7.56
2023-03-22T03:42:22.089Z,7.50
2023-03-22T03:45:09.744Z,7.50
2023-03-22T03:48:03.384Z,7.50
2023-03-22T03:50:53.493Z,7.44
2023-03-22T03:53:40.117Z,7.44
2023-03-22T03:56:26.818Z,7.44
2023-03-22T03:59:18.509Z,7.38
2023-03-22T04:02:06.207Z,7.38
2023-03-22T04:04:52.692Z,7.38
2023-03-22T04:07:39.718Z,7.38
2023-03-22T04:10:26.406Z,7.38
2023-03-22T04:13:12.785Z,7.38
2023-03-22T04:16:01.466Z,7.38
2023-03-22T04:18:50.803Z,7.38
2023-03-22T04:21:37.386Z,7.38
2023-03-22T04:24:23.948Z,7.31
2023-03-22T04:27:10.808Z,7.31
2023-03-22T04:30:19.715Z,7.31
2023-03-22T04:33:31.921Z,7.25
2023-03-22T04:36:38.814Z,7.25
2023-03-22T04:39:40.954Z,7.25
2023-03-22T04:42:50.745Z,7.19
2023-03-22T04:45:46.247Z,7.19
2023-03-22T04:48:40.817Z,7.19
2023-03-22T04:51:29.935Z,7.25
2023-03-22T04:54:42.348Z,7.25
2023-03-22T04:57:29.002Z,7.25
2023-03-22T05:00:17.995Z,7.31
2023-03-22T05:03:05.175Z,7.38
2023-03-22T05:06:07.522Z,7.44
2023-03-22T05:09:08.160Z,7.44
2023-03-22T05:11:55.217Z,7.50
2023-03-22T05:15:00.405Z,7.50
2023-03-22T05:17:50.349Z,7.56
2023-03-22T05:20:37.132Z,7.56
2023-03-22T05:23:36.534Z,7.63
2023-03-22T05:26:27.254Z,7.56
2023-03-22T05:29:14.084Z,7.69
2023-03-22T05:32:24.990Z,7.69
2023-03-22T05:35:13.503Z,7.63
2023-03-22T05:38:05.664Z,7.63
2023-03-22T05:40:54.106Z,7.63
2023-03-22T05:43:41.626Z,7.69
2023-03-22T05:46:29.907Z,7.81
2023-03-22T05:49:46.388Z,8.00
2023-03-22T05:52:32.738Z,8.00
2023-03-22T05:55:42.386Z,8.00
2023-03-22T05:58:31.096Z,8.19
2023-03-22T06:01:19.755Z,8.13
2023-03-22T06:04:06.258Z,8.13
2023-03-22T06:07:18.824Z,8.13
2023-03-22T06:10:13.968Z,8.13
2023-03-22T06:13:00.889Z,8.19
2023-03-22T06:15:49.414Z,8.19
2023-03-22T06:18:42.450Z,8.25
2023-03-22T06:21:30.933Z,8.25
2023-03-22T06:24:17.496Z,8.25
2023-03-22T06:27:05.979Z,8.31
2023-03-22T06:29:54.216Z,8.31
2023-03-22T06:32:42.996Z,8.38
2023-03-22T06:35:29.811Z,8.44
2023-03-22T06:38:16.838Z,8.56
2023-03-22T06:41:04.249Z,8.56
2023-03-22T06:43:50.751Z,8.50
2023-03-22T06:46:55.981Z,8.38
2023-03-22T06:50:01.273Z,8.31
2023-03-22T06:53:01.178Z,8.31
2023-03-22T06:55:47.962Z,8.69
2023-03-22T06:58:40.455Z,9.44
2023-03-22T07:01:27.192Z,10.13
2023-03-22T07:04:14.883Z,9.81
2023-03-22T07:07:02.787Z,9.63
2023-03-22T07:09:49.440Z,9.75
2023-03-22T07:12:36.191Z,10.00
2023-03-22T07:15:27.255Z,9.94
2023-03-22T07:18:28.285Z,9.94
2023-03-22T07:21:15.102Z,9.94
2023-03-22T07:24:02.805Z,10.13
2023-03-22T07:26:50.987Z,10.75
2023-03-22T07:29:39.662Z,11.44
2023-03-22T07:32:26.626Z,10.94
2023-03-22T07:35:39.111Z,10.69
2023-03-22T07:38:28.444Z,10.44
2023-03-22T07:41:14.873Z,10.63
2023-03-22T07:44:18.001Z,11.69
2023-03-22T07:47:39.481Z,12.88
2023-03-22T07:50:39.435Z,13.63
2023-03-22T07:53:26.438Z,14.19
2023-03-22T07:56:13.105Z,14.31
2023-03-22T07:58:59.976Z,13.94
2023-03-22T08:01:46.755Z,13.56
2023-03-22T08:04:46.438Z,13.50
2023-03-22T08:07:41.924Z,13.75
2023-03-22T08:10:31.119Z,12.88
2023-03-22T08:13:17.748Z,13.06
2023-03-22T08:16:05.740Z,13.06
2023-03-22T08:18:52.332Z,13.00
2023-03-22T08:21:39.800Z,13.81
2023-03-22T08:24:29.206Z,14.56
2023-03-22T08:27:24.928Z,14.63
2023-03-22T08:30:12.557Z,14.56
2023-03-22T08:32:59.224Z,15.19
2023-03-22T08:35:46.521Z,15.19
2023-03-22T08:38:33.400Z,15.19
2023-03-22T08:41:19.848Z,15.38
2023-03-22T08:44:06.645Z,16.69
2023-03-22T08:46:54.638Z,17.63
2023-03-22T08:49:41.502Z,17.25
2023-03-22T08:52:33.827Z,18.00
2023-03-22T08:55:24.263Z,17.88
2023-03-22T08:58:28.710Z,21.44
2023-03-22T09:01:38.504Z,25.44
2023-03-22T09:04:27.219Z,24.50
2023-03-22T09:07:14.129Z,22.13
2023-03-22T09:10:01.014Z,23.25
2023-03-22T09:12:48.398Z,20.06
2023-03-22T09:15:35.278Z,20.25
2023-03-22T09:18:28.493Z,24.88
2023-03-22T09:21:17.483Z,25.00
2023-03-22T09:24:17.718Z,25.63
2023-03-22T09:27:07.857Z,26.13
2023-03-22T09:29:54.949Z,22.25
2023-03-22T09:32:41.720Z,19.31
2023-03-22T09:35:30.426Z,17.19
2023-03-22T09:38:21.361Z,16.31
2023-03-22T09:41:20.637Z,15.50
2023-03-22T09:44:21.823Z,15.31
2023-03-22T09:47:17.277Z,15.25
2023-03-22T09:50:15.616Z,15.13
2023-03-22T09:53:02.244Z,15.63
2023-03-22T09:55:57.161Z,15.94
2023-03-22T09:59:04.184Z,17.75
2023-03-22T10:02:01.269Z,19.19
2023-03-22T10:05:31.274Z,20.63
2023-03-22T10:08:22.767Z,24.75
2023-03-22T10:11:34.237Z,21.81
2023-03-22T10:14:44.386Z,21.88
2023-03-22T10:17:31.371Z,20.94
2023-03-22T10:21:08.795Z,22.19
2023-03-22T10:24:16.645Z,22.94
2023-03-22T10:27:12.862Z,20.06
2023-03-22T10:30:23.913Z,20.56
2023-03-22T10:33:24.604Z,22.69
2023-03-22T10:36:14.397Z,30.50
2023-03-22T10:39:38.508Z,33.44
2023-03-22T10:42:29.890Z,27.75
2023-03-22T10:45:16.503Z,23.94
2023-03-22T10:48:19.130Z,25.38
2023-03-22T10:51:07.114Z,28.19
2023-03-22T10:53:57.536Z,31.31
2023-03-22T10:56:45.106Z,32.31
2023-03-22T10:59:51.614Z,33.94
2023-03-22T11:02:52.841Z,32.88
2023-03-22T11:05:39.534Z,33.00
2023-03-22T11:08:25.953Z,34.25
2023-03-22T11:11:29.469Z,32.88
2023-03-22T11:14:43.246Z,31.81
2023-03-22T11:17:30.532Z,31.06
2023-03-22T11:20:19.249Z,30.50
2023-03-22T11:23:06.427Z,33.31
2023-03-22T11:25:58.744Z,36.00
2023-03-22T11:28:50.583Z,34.00
2023-03-22T11:31:57.994Z,29.38
2023-03-22T11:34:45.432Z,25.69
2023-03-22T11:37:31.696Z,22.06
2023-03-22T11:40:34.979Z,22.75
2023-03-22T11:43:27.250Z,26.13
2023-03-22T11:46:18.721Z,28.06
2023-03-22T11:49:13.962Z,24.00
2023-03-22T11:52:10.560Z,26.44
2023-03-22T11:55:00.376Z,27.50
2023-03-22T11:57:48.597Z,29.19
2023-03-22T12:00:39.389Z,25.00
2023-03-22T12:03:35.529Z,22.13
2023-03-22T12:06:28.955Z,19.75
2023-03-22T12:09:48.432Z,18.75
2023-03-22T12:12:42.194Z,17.88
2023-03-22T12:15:36.934Z,17.88
2023-03-22T12:18:48.265Z,18.06
2023-03-22T12:21:34.890Z,18.31
2023-03-22T12:24:31.824Z,17.50
2023-03-22T12:27:33.644Z,17.00
2023-03-22T12:30:27.879Z,17.25
2023-03-22T12:33:50.975Z,17.00
2023-03-22T12:36:46.539Z,17.06
2023-03-22T12:40:01.416Z,17.13
2023-03-22T12:43:11.037Z,16.69
2023-03-22T12:46:01.432Z,16.63
2023-03-22T12:49:10.539Z,16.50
2023-03-22T12:52:13.475Z,16.19
2023-03-22T12:55:02.287Z,15.81
2023-03-22T12:57:51.830Z,15.38
2023-03-22T13:01:00.615Z,15.75
2023-03-22T13:03:54.177Z,15.31
2023-03-22T13:06:45.856Z,14.81
2023-03-22T13:09:41.894Z,15.00
2023-03-22T13:12:32.483Z,14.69
2023-03-22T13:15:41.746Z,14.50
2023-03-22T13:18:35.817Z,14.56
2023-03-22T13:21:47.888Z,15.00
2023-03-22T13:24:34.384Z,14.63
2023-03-22T13:27:20.910Z,14.19
2023-03-22T13:30:32.404Z,14.19
2023-03-22T13:33:27.979Z,14.25
2023-03-22T13:36:25.440Z,14.25
2023-03-22T13:39:16.441Z,14.25
2023-03-22T13:42:18.201Z,14.31
2023-03-22T13:45:32.817Z,14.63
2023-03-22T13:48:43.647Z,14.94
2023-03-22T13:51:32.637Z,14.81
2023-03-22T13:54:30.311Z,14.88
2023-03-22T13:57:45.801Z,14.69
2023-03-22T14:00:38.227Z,15.00
2023-03-22T14:03:36.808Z,14.81
2023-03-22T14:06:33.186Z,14.63
2023-03-22T14:09:39.145Z,14.38
2023-03-22T14:13:13.288Z,14.19
2023-03-22T14:16:21.196Z,14.06
2023-03-22T14:19:20.509Z,13.63
